JBU118 KJFK-KBOS
Flight info
| Callsign | JBU118 |
|---|---|
| Flight time | 0h 41m |
| Altitude | 21000 |
| Route | MERIT ROBUC3 |
| Aircraft | A21N/M-SDE2E3FGHIRWXY/LB1 |
Departure
| Time | 2026-05-06 23:56 |
|---|---|
| Airport | John F. Kennedy International Airport (KJFK) |
Arrival
| Time | 2026-05-07 00:37 |
|---|---|
| Airport | Boston Logan International Airport (KBOS) |
| Time | Latitude | Longitude | Altitude | Speed | Heading |
|---|---|---|---|---|---|
| 2026-05-06 23:30 | 40.64615 | -73.77245 | 21 ft | 0 kts | 165° |
| 2026-05-06 23:48 | 40.64637 | -73.77254 | 22 ft | 0 kts | 165° |
| 2026-05-06 23:48 | 40.64658 | -73.77261 | 23 ft | 0 kts | 158° |
| 2026-05-06 23:48 | 40.64679 | -73.77280 | 23 ft | 0 kts | 126° |
| 2026-05-06 23:48 | 40.64691 | -73.77307 | 21 ft | 0 kts | 121° |
| 2026-05-06 23:49 | 40.64704 | -73.77335 | 26 ft | 0 kts | 121° |
| 2026-05-06 23:49 | 40.64718 | -73.77366 | 26 ft | 0 kts | 121° |
| 2026-05-06 23:49 | 40.64732 | -73.77396 | 23 ft | 0 kts | 121° |
| 2026-05-06 23:49 | 40.64746 | -73.77427 | 23 ft | 0 kts | 120° |
| 2026-05-06 23:50 | 40.64756 | -73.77451 | 22 ft | 0 kts | 120° |
| 2026-05-06 23:50 | 40.64762 | -73.77464 | 25 ft | 0 kts | 120° |
| 2026-05-06 23:52 | 40.64759 | -73.77457 | 22 ft | 3 kts | 120° |
| 2026-05-06 23:52 | 40.64747 | -73.77429 | 24 ft | 5 kts | 120° |
| 2026-05-06 23:53 | 40.64754 | -73.77378 | 21 ft | 8 kts | 44° |
| 2026-05-06 23:53 | 40.64778 | -73.77309 | 21 ft | 11 kts | 110° |
| 2026-05-06 23:53 | 40.64736 | -73.77211 | 21 ft | 14 kts | 121° |
| 2026-05-06 23:53 | 40.64669 | -73.77107 | 21 ft | 16 kts | 152° |
| 2026-05-06 23:54 | 40.64569 | -73.77090 | 21 ft | 15 kts | 180° |
| 2026-05-06 23:54 | 40.64484 | -73.77092 | 21 ft | 11 kts | 183° |
| 2026-05-06 23:54 | 40.64425 | -73.77054 | 23 ft | 12 kts | 105° |
| 2026-05-06 23:54 | 40.64399 | -73.76948 | 21 ft | 11 kts | 107° |
| 2026-05-06 23:55 | 40.64370 | -73.76874 | 21 ft | 10 kts | 157° |
| 2026-05-06 23:55 | 40.64294 | -73.76924 | 22 ft | 19 kts | 212° |
| 2026-05-06 23:55 | 40.63971 | -73.77176 | 24 ft | 96 kts | 210° |
| 2026-05-06 23:55 | 40.63177 | -73.77792 | 95 ft | 156 kts | 210° |
| 2026-05-06 23:56 | 40.62246 | -73.78500 | 896 ft | 154 kts | 211° |
| 2026-05-06 23:56 | 40.61326 | -73.79268 | 1667 ft | 163 kts | 218° |
| 2026-05-06 23:56 | 40.60307 | -73.80096 | 2287 ft | 181 kts | 216° |
| 2026-05-06 23:56 | 40.59192 | -73.80979 | 2776 ft | 209 kts | 216° |
| 2026-05-06 23:57 | 40.57807 | -73.82083 | 3464 ft | 236 kts | 216° |
| 2026-05-06 23:57 | 40.56371 | -73.83228 | 4356 ft | 246 kts | 216° |
| 2026-05-06 23:57 | 40.54891 | -73.84405 | 5385 ft | 250 kts | 216° |
| 2026-05-06 23:57 | 40.53391 | -73.85597 | 6456 ft | 253 kts | 216° |
| 2026-05-06 23:58 | 40.51833 | -73.86657 | 7448 ft | 262 kts | 204° |
| 2026-05-06 23:58 | 40.49972 | -73.86859 | 8469 ft | 278 kts | 180° |
| 2026-05-06 23:58 | 40.48089 | -73.85991 | 9477 ft | 298 kts | 158° |
| 2026-05-06 23:58 | 40.46481 | -73.84130 | 10286 ft | 321 kts | 135° |
| 2026-05-06 23:59 | 40.45358 | -73.81449 | 10781 ft | 353 kts | 115° |
| 2026-05-06 23:59 | 40.44884 | -73.78130 | 10996 ft | 388 kts | 94° |
| 2026-05-06 23:59 | 40.45202 | -73.74468 | 11070 ft | 420 kts | 75° |
| 2026-05-06 23:59 | 40.46323 | -73.70912 | 11071 ft | 430 kts | 58° |
| 2026-05-07 00:00 | 40.48018 | -73.67702 | 11050 ft | 427 kts | 49° |
| 2026-05-07 00:00 | 40.49868 | -73.64647 | 11026 ft | 426 kts | 48° |
| 2026-05-07 00:00 | 40.51740 | -73.61648 | 11008 ft | 424 kts | 47° |
| 2026-05-07 00:00 | 40.53624 | -73.58655 | 11011 ft | 424 kts | 47° |
| 2026-05-07 00:01 | 40.55772 | -73.56068 | 11182 ft | 416 kts | 30° |
| 2026-05-07 00:01 | 40.58314 | -73.54325 | 11730 ft | 411 kts | 16° |
| 2026-05-07 00:01 | 40.61002 | -73.52981 | 12551 ft | 415 kts | 13° |
| 2026-05-07 00:01 | 40.63737 | -73.51658 | 13333 ft | 421 kts | 13° |
| 2026-05-07 00:02 | 40.66490 | -73.50300 | 14051 ft | 427 kts | 14° |
| 2026-05-07 00:02 | 40.69283 | -73.48905 | 14755 ft | 430 kts | 14° |
| 2026-05-07 00:02 | 40.72091 | -73.47488 | 15515 ft | 433 kts | 14° |
| 2026-05-07 00:02 | 40.74929 | -73.46053 | 16262 ft | 436 kts | 14° |
| 2026-05-07 00:03 | 40.77777 | -73.44614 | 16797 ft | 440 kts | 14° |
| 2026-05-07 00:03 | 40.80612 | -73.43177 | 17026 ft | 444 kts | 15° |
| 2026-05-07 00:03 | 40.83497 | -73.41709 | 17519 ft | 446 kts | 15° |
| 2026-05-07 00:03 | 40.86401 | -73.40240 | 18239 ft | 449 kts | 15° |
| 2026-05-07 00:04 | 40.89426 | -73.38701 | 18886 ft | 452 kts | 14° |
| 2026-05-07 00:04 | 40.92274 | -73.37262 | 19445 ft | 456 kts | 13° |
| 2026-05-07 00:04 | 40.95263 | -73.35741 | 19977 ft | 461 kts | 13° |
| 2026-05-07 00:04 | 40.98278 | -73.34204 | 20390 ft | 464 kts | 13° |
| 2026-05-07 00:05 | 41.01309 | -73.32666 | 20692 ft | 467 kts | 12° |
| 2026-05-07 00:05 | 41.04330 | -73.31127 | 20856 ft | 465 kts | 12° |
| 2026-05-07 00:05 | 41.07341 | -73.29586 | 20869 ft | 464 kts | 12° |
| 2026-05-07 00:05 | 41.10365 | -73.28041 | 20861 ft | 464 kts | 12° |
| 2026-05-07 00:06 | 41.13341 | -73.26520 | 20853 ft | 464 kts | 12° |
| 2026-05-07 00:06 | 41.16353 | -73.24979 | 20850 ft | 464 kts | 12° |
| 2026-05-07 00:06 | 41.19379 | -73.23430 | 20879 ft | 465 kts | 13° |
| 2026-05-07 00:06 | 41.22396 | -73.21879 | 20862 ft | 465 kts | 13° |
| 2026-05-07 00:07 | 41.25419 | -73.20328 | 20848 ft | 465 kts | 13° |
| 2026-05-07 00:07 | 41.28433 | -73.18776 | 20842 ft | 464 kts | 13° |
| 2026-05-07 00:07 | 41.31426 | -73.17104 | 20834 ft | 474 kts | 18° |
| 2026-05-07 00:07 | 41.34313 | -73.14722 | 20826 ft | 505 kts | 32° |
| 2026-05-07 00:08 | 41.36813 | -73.11339 | 20869 ft | 519 kts | 48° |
| 2026-05-07 00:08 | 41.38677 | -73.07188 | 20853 ft | 526 kts | 64° |
| 2026-05-07 00:08 | 41.39776 | -73.02534 | 20859 ft | 527 kts | 78° |
| 2026-05-07 00:08 | 41.40462 | -72.97723 | 20860 ft | 527 kts | 79° |
| 2026-05-07 00:09 | 41.41210 | -72.92940 | 20827 ft | 528 kts | 77° |
| 2026-05-07 00:09 | 41.42080 | -72.88249 | 20826 ft | 528 kts | 75° |
| 2026-05-07 00:09 | 41.43040 | -72.83514 | 20829 ft | 528 kts | 74° |
| 2026-05-07 00:09 | 41.44014 | -72.78799 | 20831 ft | 524 kts | 74° |
| 2026-05-07 00:10 | 41.44953 | -72.74233 | 20817 ft | 497 kts | 74° |
| 2026-05-07 00:10 | 41.45841 | -72.69877 | 20806 ft | 482 kts | 74° |
| 2026-05-07 00:10 | 41.46720 | -72.65566 | 20812 ft | 481 kts | 74° |
| 2026-05-07 00:10 | 41.47596 | -72.61261 | 20821 ft | 481 kts | 74° |
| 2026-05-07 00:11 | 41.48468 | -72.56954 | 20807 ft | 482 kts | 74° |
| 2026-05-07 00:11 | 41.49331 | -72.52683 | 20816 ft | 482 kts | 74° |
| 2026-05-07 00:11 | 41.50207 | -72.48351 | 20818 ft | 482 kts | 74° |
| 2026-05-07 00:11 | 41.51078 | -72.44024 | 20818 ft | 483 kts | 74° |
| 2026-05-07 00:12 | 41.51944 | -72.39694 | 20820 ft | 483 kts | 75° |
| 2026-05-07 00:12 | 41.52810 | -72.35355 | 20819 ft | 484 kts | 75° |
| 2026-05-07 00:12 | 41.53678 | -72.31010 | 20822 ft | 484 kts | 75° |
| 2026-05-07 00:12 | 41.54542 | -72.26688 | 20820 ft | 484 kts | 75° |
| 2026-05-07 00:13 | 41.55404 | -72.22337 | 20813 ft | 483 kts | 75° |
| 2026-05-07 00:13 | 41.56265 | -72.17973 | 20819 ft | 483 kts | 75° |
| 2026-05-07 00:13 | 41.57123 | -72.13633 | 20824 ft | 483 kts | 75° |
| 2026-05-07 00:13 | 41.57980 | -72.09298 | 20825 ft | 483 kts | 75° |
| 2026-05-07 00:14 | 41.58838 | -72.04958 | 20822 ft | 483 kts | 75° |
| 2026-05-07 00:14 | 41.59694 | -72.00616 | 20849 ft | 483 kts | 75° |
| 2026-05-07 00:14 | 41.60547 | -71.96273 | 20836 ft | 482 kts | 75° |
| 2026-05-07 00:14 | 41.61395 | -71.91937 | 20829 ft | 482 kts | 75° |
| 2026-05-07 00:15 | 41.62239 | -71.87614 | 20811 ft | 480 kts | 75° |
| 2026-05-07 00:15 | 41.63083 | -71.83300 | 20825 ft | 480 kts | 75° |
| 2026-05-07 00:15 | 41.63917 | -71.79023 | 20832 ft | 480 kts | 76° |
| 2026-05-07 00:15 | 41.64774 | -71.74603 | 20705 ft | 485 kts | 76° |
| 2026-05-07 00:16 | 41.65625 | -71.70218 | 20205 ft | 503 kts | 76° |
| 2026-05-07 00:16 | 41.66502 | -71.65699 | 19435 ft | 499 kts | 76° |
| 2026-05-07 00:16 | 41.67362 | -71.61239 | 18823 ft | 486 kts | 77° |
| 2026-05-07 00:16 | 41.68282 | -71.57016 | 18306 ft | 464 kts | 70° |
| 2026-05-07 00:17 | 41.69439 | -71.53097 | 17781 ft | 443 kts | 69° |
| 2026-05-07 00:17 | 41.70560 | -71.49334 | 17229 ft | 426 kts | 69° |
| 2026-05-07 00:17 | 41.71628 | -71.45709 | 16662 ft | 412 kts | 70° |
| 2026-05-07 00:17 | 41.72756 | -71.42240 | 16101 ft | 400 kts | 62° |
| 2026-05-07 00:18 | 41.74094 | -71.39036 | 15568 ft | 389 kts | 60° |
| 2026-05-07 00:18 | 41.75450 | -71.35909 | 15045 ft | 384 kts | 59° |
| 2026-05-07 00:18 | 41.76777 | -71.32848 | 14663 ft | 380 kts | 59° |
| 2026-05-07 00:18 | 41.78092 | -71.29792 | 14282 ft | 377 kts | 59° |
| 2026-05-07 00:19 | 41.79398 | -71.26747 | 13899 ft | 375 kts | 59° |
| 2026-05-07 00:19 | 41.80672 | -71.23762 | 13480 ft | 373 kts | 60° |
| 2026-05-07 00:19 | 41.81951 | -71.20756 | 13057 ft | 370 kts | 60° |
| 2026-05-07 00:19 | 41.83211 | -71.17789 | 12709 ft | 362 kts | 60° |
| 2026-05-07 00:20 | 41.84444 | -71.14884 | 12338 ft | 356 kts | 59° |
| 2026-05-07 00:20 | 41.85666 | -71.12002 | 11985 ft | 354 kts | 59° |
| 2026-05-07 00:20 | 41.86889 | -71.09159 | 11621 ft | 352 kts | 59° |
| 2026-05-07 00:20 | 41.88119 | -71.06324 | 11284 ft | 350 kts | 59° |
| 2026-05-07 00:21 | 41.89333 | -71.03523 | 10937 ft | 345 kts | 59° |
| 2026-05-07 00:21 | 41.90535 | -71.00743 | 10645 ft | 342 kts | 59° |
| 2026-05-07 00:21 | 41.91725 | -70.97986 | 10432 ft | 340 kts | 59° |
| 2026-05-07 00:21 | 41.92907 | -70.95242 | 10219 ft | 339 kts | 59° |
| 2026-05-07 00:22 | 41.94083 | -70.92510 | 10039 ft | 337 kts | 59° |
| 2026-05-07 00:22 | 41.95240 | -70.89821 | 9847 ft | 336 kts | 59° |
| 2026-05-07 00:22 | 41.96413 | -70.87089 | 9681 ft | 338 kts | 59° |
| 2026-05-07 00:22 | 41.97586 | -70.84355 | 9540 ft | 337 kts | 59° |
| 2026-05-07 00:23 | 41.98754 | -70.81632 | 9406 ft | 336 kts | 59° |
| 2026-05-07 00:23 | 41.99923 | -70.78902 | 9294 ft | 335 kts | 59° |
| 2026-05-07 00:23 | 42.01123 | -70.76252 | 9039 ft | 329 kts | 52° |
| 2026-05-07 00:23 | 42.02588 | -70.73907 | 8857 ft | 327 kts | 45° |
| 2026-05-07 00:24 | 42.04112 | -70.71648 | 8714 ft | 326 kts | 45° |
| 2026-05-07 00:24 | 42.05639 | -70.69392 | 8577 ft | 325 kts | 45° |
| 2026-05-07 00:24 | 42.07149 | -70.67148 | 8435 ft | 323 kts | 45° |
| 2026-05-07 00:24 | 42.08658 | -70.64894 | 8281 ft | 322 kts | 45° |
| 2026-05-07 00:25 | 42.10155 | -70.62717 | 8117 ft | 320 kts | 40° |
| 2026-05-07 00:25 | 42.12020 | -70.61163 | 7856 ft | 306 kts | 13° |
| 2026-05-07 00:25 | 42.13369 | -70.60699 | 7584 ft | 299 kts | 5° |
| 2026-05-07 00:25 | 42.15404 | -70.60197 | 7144 ft | 296 kts | 4° |
| 2026-05-07 00:26 | 42.18073 | -70.59536 | 6646 ft | 293 kts | 4° |
| 2026-05-07 00:26 | 42.20067 | -70.59014 | 6286 ft | 291 kts | 5° |
| 2026-05-07 00:26 | 42.22053 | -70.58482 | 6023 ft | 291 kts | 5° |
| 2026-05-07 00:26 | 42.24045 | -70.57940 | 5816 ft | 292 kts | 6° |
| 2026-05-07 00:27 | 42.26020 | -70.57392 | 5575 ft | 287 kts | 5° |
| 2026-05-07 00:27 | 42.27993 | -70.56844 | 5403 ft | 291 kts | 6° |
| 2026-05-07 00:27 | 42.29322 | -70.56472 | 5272 ft | 287 kts | 6° |
| 2026-05-07 00:27 | 42.31244 | -70.55977 | 5079 ft | 281 kts | 360° |
| 2026-05-07 00:28 | 42.33099 | -70.56354 | 4977 ft | 264 kts | 328° |
| 2026-05-07 00:28 | 42.34522 | -70.57814 | 5003 ft | 256 kts | 309° |
| 2026-05-07 00:28 | 42.35774 | -70.59537 | 5048 ft | 255 kts | 308° |
| 2026-05-07 00:28 | 42.37031 | -70.61270 | 5027 ft | 258 kts | 309° |
| 2026-05-07 00:29 | 42.38299 | -70.62982 | 5020 ft | 257 kts | 310° |
| 2026-05-07 00:29 | 42.39554 | -70.64660 | 5020 ft | 257 kts | 310° |
| 2026-05-07 00:30 | 42.43382 | -70.69732 | 4814 ft | 253 kts | 310° |
| 2026-05-07 00:30 | 42.44637 | -70.71388 | 4343 ft | 251 kts | 310° |
| 2026-05-07 00:30 | 42.45885 | -70.73042 | 3865 ft | 251 kts | 310° |
| 2026-05-07 00:30 | 42.47097 | -70.74717 | 3456 ft | 248 kts | 305° |
| 2026-05-07 00:31 | 42.47953 | -70.76688 | 3245 ft | 238 kts | 288° |
| 2026-05-07 00:31 | 42.48530 | -70.78705 | 3113 ft | 223 kts | 286° |
| 2026-05-07 00:31 | 42.49059 | -70.80608 | 2975 ft | 208 kts | 286° |
| 2026-05-07 00:31 | 42.49558 | -70.82364 | 2960 ft | 194 kts | 286° |
| 2026-05-07 00:32 | 42.50047 | -70.84085 | 2977 ft | 197 kts | 286° |
| 2026-05-07 00:32 | 42.50526 | -70.85786 | 2985 ft | 195 kts | 286° |
| 2026-05-07 00:32 | 42.50995 | -70.87500 | 2891 ft | 192 kts | 281° |
| 2026-05-07 00:32 | 42.51114 | -70.89276 | 2728 ft | 191 kts | 267° |
| 2026-05-07 00:33 | 42.51089 | -70.91070 | 2565 ft | 191 kts | 265° |
| 2026-05-07 00:33 | 42.50751 | -70.92760 | 2413 ft | 185 kts | 237° |
| 2026-05-07 00:33 | 42.49829 | -70.93918 | 2223 ft | 179 kts | 215° |
| 2026-05-07 00:33 | 42.48726 | -70.94642 | 2027 ft | 170 kts | 204° |
| 2026-05-07 00:34 | 42.47609 | -70.95137 | 1973 ft | 168 kts | 204° |
| 2026-05-07 00:34 | 42.46578 | -70.95628 | 1972 ft | 147 kts | 205° |
| 2026-05-07 00:34 | 42.45659 | -70.96075 | 1805 ft | 137 kts | 205° |
| 2026-05-07 00:34 | 42.44794 | -70.96494 | 1612 ft | 123 kts | 205° |
| 2026-05-07 00:35 | 42.43987 | -70.96886 | 1448 ft | 124 kts | 204° |
| 2026-05-07 00:35 | 42.43177 | -70.97279 | 1290 ft | 126 kts | 204° |
| 2026-05-07 00:35 | 42.42368 | -70.97670 | 1137 ft | 115 kts | 203° |
| 2026-05-07 00:35 | 42.41616 | -70.98036 | 961 ft | 115 kts | 203° |
| 2026-05-07 00:36 | 42.40867 | -70.98391 | 824 ft | 116 kts | 202° |
| 2026-05-07 00:36 | 42.40115 | -70.98766 | 630 ft | 115 kts | 202° |
| 2026-05-07 00:36 | 42.39365 | -70.99132 | 428 ft | 115 kts | 200° |
| 2026-05-07 00:36 | 42.38585 | -70.99504 | 311 ft | 120 kts | 200° |
| 2026-05-07 00:37 | 42.37800 | -70.99881 | 153 ft | 121 kts | 202° |
| 2026-05-07 00:37 | 42.36998 | -71.00268 | 40 ft | 118 kts | 200° |
| 2026-05-07 00:37 | 42.36382 | -71.00563 | 31 ft | 54 kts | 201° |
| 2026-05-07 00:37 | 42.36193 | -71.00658 | 31 ft | 17 kts | 212° |
| 2026-05-07 00:38 | 42.36148 | -71.00803 | 31 ft | 16 kts | 287° |
| 2026-05-07 00:38 | 42.36180 | -71.00908 | 31 ft | 8 kts | 293° |
| 2026-05-07 00:38 | 42.36207 | -71.00990 | 31 ft | 11 kts | 295° |
| 2026-05-07 00:38 | 42.36238 | -71.01084 | 31 ft | 11 kts | 294° |
| 2026-05-07 00:39 | 42.36276 | -71.01189 | 31 ft | 14 kts | 300° |
| 2026-05-07 00:39 | 42.36320 | -71.01281 | 31 ft | 10 kts | 304° |
| 2026-05-07 00:39 | 42.36360 | -71.01365 | 31 ft | 7 kts | 294° |
| 2026-05-07 00:39 | 42.36378 | -71.01417 | 31 ft | 7 kts | 294° |
| 2026-05-07 00:40 | 42.36403 | -71.01489 | 31 ft | 10 kts | 299° |
| 2026-05-07 00:40 | 42.36439 | -71.01572 | 31 ft | 5 kts | 302° |
| 2026-05-07 00:40 | 42.36469 | -71.01619 | 31 ft | 8 kts | 347° |
| 2026-05-07 00:40 | 42.36508 | -71.01582 | 31 ft | 6 kts | 34° |
| 2026-05-07 00:41 | 42.36537 | -71.01555 | 31 ft | 2 kts | 31° |
| 2026-05-07 00:41 | 42.36539 | -71.01554 | 31 ft | 0 kts | 31° |
| 2026-05-07 00:42 | 42.36555 | -71.01604 | 31 ft | 0 kts | 19° |